sensor_id;sensor_type;location;lat;lon;timestamp;temperature;humidity
27793;DHT22;15174;48.190;11.462;2024-02-28T00:01:31;6.10;99.90
27793;DHT22;15174;48.190;11.462;2024-02-28T00:03:58;6.10;99.90
27793;DHT22;15174;48.190;11.462;2024-02-28T00:06:24;6.10;99.90
27793;DHT22;15174;48.190;11.462;2024-02-28T00:08:51;6.10;99.90
27793;DHT22;15174;48.190;11.462;2024-02-28T00:11:20;6.10;99.90
27793;DHT22;15174;48.190;11.462;2024-02-28T00:13:47;6.10;99.90
27793;DHT22;15174;48.190;11.462;2024-02-28T00:16:14;6.10;99.90
27793;DHT22;15174;48.190;11.462;2024-02-28T00:18:39;6.10;99.90
27793;DHT22;15174;48.190;11.462;2024-02-28T00:21:05;6.10;99.90
27793;DHT22;15174;48.190;11.462;2024-02-28T00:23:30;6.10;99.90
27793;DHT22;15174;48.190;11.462;2024-02-28T00:25:57;6.20;99.90
27793;DHT22;15174;48.190;11.462;2024-02-28T00:28:23;6.10;99.90
27793;DHT22;15174;48.190;11.462;2024-02-28T00:30:49;6.10;99.90
27793;DHT22;15174;48.190;11.462;2024-02-28T00:33:14;6.10;99.90
27793;DHT22;15174;48.190;11.462;2024-02-28T00:35:40;6.10;99.90
27793;DHT22;15174;48.190;11.462;2024-02-28T00:38:06;6.10;99.90
27793;DHT22;15174;48.190;11.462;2024-02-28T00:40:31;6.10;99.90
27793;DHT22;15174;48.190;11.462;2024-02-28T00:42:57;6.10;99.90
27793;DHT22;15174;48.190;11.462;2024-02-28T00:45:23;6.00;99.90
27793;DHT22;15174;48.190;11.462;2024-02-28T00:47:49;6.00;99.90
27793;DHT22;15174;48.190;11.462;2024-02-28T00:50:14;6.00;99.90
27793;DHT22;15174;48.190;11.462;2024-02-28T00:52:40;6.00;99.90
27793;DHT22;15174;48.190;11.462;2024-02-28T00:55:06;6.00;99.90
27793;DHT22;15174;48.190;11.462;2024-02-28T00:57:32;6.00;99.90
27793;DHT22;15174;48.190;11.462;2024-02-28T00:59:58;6.10;99.90
27793;DHT22;15174;48.190;11.462;2024-02-28T01:02:24;6.10;99.90
27793;DHT22;15174;48.190;11.462;2024-02-28T01:04:50;6.10;99.90
27793;DHT22;15174;48.190;11.462;2024-02-28T01:07:15;6.10;99.90
27793;DHT22;15174;48.190;11.462;2024-02-28T01:09:41;6.10;99.90
27793;DHT22;15174;48.190;11.462;2024-02-28T01:12:07;6.20;99.90
27793;DHT22;15174;48.190;11.462;2024-02-28T01:14:33;6.20;99.90
27793;DHT22;15174;48.190;11.462;2024-02-28T01:16:58;6.20;99.90
27793;DHT22;15174;48.190;11.462;2024-02-28T01:19:24;6.20;99.90
27793;DHT22;15174;48.190;11.462;2024-02-28T01:21:50;6.20;99.90
27793;DHT22;15174;48.190;11.462;2024-02-28T01:24:15;6.30;99.90
27793;DHT22;15174;48.190;11.462;2024-02-28T01:26:41;6.30;99.90
27793;DHT22;15174;48.190;11.462;2024-02-28T01:29:07;6.30;99.90
27793;DHT22;15174;48.190;11.462;2024-02-28T01:31:33;6.30;99.90
27793;DHT22;15174;48.190;11.462;2024-02-28T01:33:58;6.30;99.90
27793;DHT22;15174;48.190;11.462;2024-02-28T01:36:24;6.30;99.90
27793;DHT22;15174;48.190;11.462;2024-02-28T01:38:50;6.30;99.90
27793;DHT22;15174;48.190;11.462;2024-02-28T01:41:15;6.40;99.90
27793;DHT22;15174;48.190;11.462;2024-02-28T01:43:41;6.30;99.90
27793;DHT22;15174;48.190;11.462;2024-02-28T01:46:25;6.30;99.90
27793;DHT22;15174;48.190;11.462;2024-02-28T01:48:56;6.30;99.90
27793;DHT22;15174;48.190;11.462;2024-02-28T01:51:24;6.30;99.90
27793;DHT22;15174;48.190;11.462;2024-02-28T01:53:51;6.30;99.90
27793;DHT22;15174;48.190;11.462;2024-02-28T01:56:19;6.30;99.90
27793;DHT22;15174;48.190;11.462;2024-02-28T01:58:46;6.30;99.90
27793;DHT22;15174;48.190;11.462;2024-02-28T02:01:14;6.30;99.90
27793;DHT22;15174;48.190;11.462;2024-02-28T02:03:45;6.40;99.90
27793;DHT22;15174;48.190;11.462;2024-02-28T02:06:11;6.40;99.90
27793;DHT22;15174;48.190;11.462;2024-02-28T02:08:37;6.40;99.90
27793;DHT22;15174;48.190;11.462;2024-02-28T02:11:04;6.40;99.90
27793;DHT22;15174;48.190;11.462;2024-02-28T02:13:30;6.40;99.90
27793;DHT22;15174;48.190;11.462;2024-02-28T02:15:57;6.40;99.90
27793;DHT22;15174;48.190;11.462;2024-02-28T02:18:22;6.40;99.90
27793;DHT22;15174;48.190;11.462;2024-02-28T02:20:56;6.50;99.90
27793;DHT22;15174;48.190;11.462;2024-02-28T02:23:24;6.50;99.90
27793;DHT22;15174;48.190;11.462;2024-02-28T02:25:49;6.40;99.90
27793;DHT22;15174;48.190;11.462;2024-02-28T02:28:15;6.40;99.90
27793;DHT22;15174;48.190;11.462;2024-02-28T02:30:41;6.40;99.90
27793;DHT22;15174;48.190;11.462;2024-02-28T02:33:07;6.40;99.90
27793;DHT22;15174;48.190;11.462;2024-02-28T02:35:33;6.50;99.90
27793;DHT22;15174;48.190;11.462;2024-02-28T02:37:59;6.40;99.90
27793;DHT22;15174;48.190;11.462;2024-02-28T02:40:25;6.40;99.90
27793;DHT22;15174;48.190;11.462;2024-02-28T02:42:51;6.40;99.90
27793;DHT22;15174;48.190;11.462;2024-02-28T02:45:16;6.40;99.90
27793;DHT22;15174;48.190;11.462;2024-02-28T02:47:42;6.30;99.90
27793;DHT22;15174;48.190;11.462;2024-02-28T02:50:11;6.30;99.90
27793;DHT22;15174;48.190;11.462;2024-02-28T02:52:44;6.30;99.90
27793;DHT22;15174;48.190;11.462;2024-02-28T02:55:13;6.30;99.90
27793;DHT22;15174;48.190;11.462;2024-02-28T02:57:40;6.20;99.90
27793;DHT22;15174;48.190;11.462;2024-02-28T03:00:08;6.20;99.90
27793;DHT22;15174;48.190;11.462;2024-02-28T03:02:34;6.10;99.90
27793;DHT22;15174;48.190;11.462;2024-02-28T03:05:03;6.00;99.90
27793;DHT22;15174;48.190;11.462;2024-02-28T03:07:28;5.90;99.90
27793;DHT22;15174;48.190;11.462;2024-02-28T03:09:54;5.90;99.90
27793;DHT22;15174;48.190;11.462;2024-02-28T03:12:20;5.90;99.90
27793;DHT22;15174;48.190;11.462;2024-02-28T03:14:50;5.80;99.90
27793;DHT22;15174;48.190;11.462;2024-02-28T03:17:15;5.80;99.90
27793;DHT22;15174;48.190;11.462;2024-02-28T03:19:41;5.80;99.90
27793;DHT22;15174;48.190;11.462;2024-02-28T03:22:07;5.90;99.90
27793;DHT22;15174;48.190;11.462;2024-02-28T03:24:33;5.90;99.90
27793;DHT22;15174;48.190;11.462;2024-02-28T03:27:02;5.90;99.90
27793;DHT22;15174;48.190;11.462;2024-02-28T03:29:28;5.90;99.90
27793;DHT22;15174;48.190;11.462;2024-02-28T03:31:54;5.80;99.90
27793;DHT22;15174;48.190;11.462;2024-02-28T03:34:19;5.90;99.90
27793;DHT22;15174;48.190;11.462;2024-02-28T03:36:45;5.90;99.90
27793;DHT22;15174;48.190;11.462;2024-02-28T03:39:11;6.00;99.90
27793;DHT22;15174;48.190;11.462;2024-02-28T03:41:37;6.00;99.90
27793;DHT22;15174;48.190;11.462;2024-02-28T03:44:04;6.00;99.90
27793;DHT22;15174;48.190;11.462;2024-02-28T03:46:30;5.90;99.90
27793;DHT22;15174;48.190;11.462;2024-02-28T03:48:55;5.80;99.90
27793;DHT22;15174;48.190;11.462;2024-02-28T03:51:21;5.90;99.90
27793;DHT22;15174;48.190;11.462;2024-02-28T03:53:47;5.90;99.90
27793;DHT22;15174;48.190;11.462;2024-02-28T03:56:12;5.80;99.90
27793;DHT22;15174;48.190;11.462;2024-02-28T03:58:40;5.70;99.90
27793;DHT22;15174;48.190;11.462;2024-02-28T04:01:05;5.70;99.90
27793;DHT22;15174;48.190;11.462;2024-02-28T04:03:31;5.70;99.90
27793;DHT22;15174;48.190;11.462;2024-02-28T04:05:57;5.80;99.90
27793;DHT22;15174;48.190;11.462;2024-02-28T04:08:23;5.80;99.90
27793;DHT22;15174;48.190;11.462;2024-02-28T04:10:49;5.70;99.90
27793;DHT22;15174;48.190;11.462;2024-02-28T04:13:16;5.70;99.90
27793;DHT22;15174;48.190;11.462;2024-02-28T04:15:42;5.60;99.90
27793;DHT22;15174;48.190;11.462;2024-02-28T04:18:07;5.60;99.90
27793;DHT22;15174;48.190;11.462;2024-02-28T04:20:33;5.70;99.90
27793;DHT22;15174;48.190;11.462;2024-02-28T04:22:59;5.70;99.90
27793;DHT22;15174;48.190;11.462;2024-02-28T04:25:27;5.60;99.90
27793;DHT22;15174;48.190;11.462;2024-02-28T04:27:53;5.60;99.90
27793;DHT22;15174;48.190;11.462;2024-02-28T04:30:19;5.60;99.90
27793;DHT22;15174;48.190;11.462;2024-02-28T04:32:45;5.50;99.90
27793;DHT22;15174;48.190;11.462;2024-02-28T04:35:10;5.50;99.90
27793;DHT22;15174;48.190;11.462;2024-02-28T04:37:36;5.50;99.90
27793;DHT22;15174;48.190;11.462;2024-02-28T04:40:03;5.50;99.90
27793;DHT22;15174;48.190;11.462;2024-02-28T04:42:29;5.50;99.90
27793;DHT22;15174;48.190;11.462;2024-02-28T04:44:54;5.50;99.90
27793;DHT22;15174;48.190;11.462;2024-02-28T04:47:21;5.50;99.90
27793;DHT22;15174;48.190;11.462;2024-02-28T04:49:48;5.50;99.90
27793;DHT22;15174;48.190;11.462;2024-02-28T04:52:13;5.50;99.90
27793;DHT22;15174;48.190;11.462;2024-02-28T04:54:40;5.50;99.90
27793;DHT22;15174;48.190;11.462;2024-02-28T04:57:06;5.50;99.90
27793;DHT22;15174;48.190;11.462;2024-02-28T04:59:32;5.50;99.90
27793;DHT22;15174;48.190;11.462;2024-02-28T05:01:58;5.50;99.90
27793;DHT22;15174;48.190;11.462;2024-02-28T05:04:23;5.50;99.90
27793;DHT22;15174;48.190;11.462;2024-02-28T05:06:49;5.50;99.90
27793;DHT22;15174;48.190;11.462;2024-02-28T05:09:16;5.50;99.90
27793;DHT22;15174;48.190;11.462;2024-02-28T05:11:43;5.50;99.90
27793;DHT22;15174;48.190;11.462;2024-02-28T05:14:09;5.50;99.90
27793;DHT22;15174;48.190;11.462;2024-02-28T05:16:37;5.60;99.90
27793;DHT22;15174;48.190;11.462;2024-02-28T05:19:02;5.50;99.90
27793;DHT22;15174;48.190;11.462;2024-02-28T05:21:30;5.50;99.90
27793;DHT22;15174;48.190;11.462;2024-02-28T05:23:55;5.50;99.90
27793;DHT22;15174;48.190;11.462;2024-02-28T05:26:21;5.50;99.90
27793;DHT22;15174;48.190;11.462;2024-02-28T05:28:46;5.50;99.90
27793;DHT22;15174;48.190;11.462;2024-02-28T05:31:26;5.50;99.90
27793;DHT22;15174;48.190;11.462;2024-02-28T05:33:53;5.50;99.90
27793;DHT22;15174;48.190;11.462;2024-02-28T05:36:23;5.50;99.90
27793;DHT22;15174;48.190;11.462;2024-02-28T05:38:50;5.50;99.90
27793;DHT22;15174;48.190;11.462;2024-02-28T05:41:19;5.50;99.90
27793;DHT22;15174;48.190;11.462;2024-02-28T05:43:45;5.50;99.90
27793;DHT22;15174;48.190;11.462;2024-02-28T05:46:14;5.50;99.90
27793;DHT22;15174;48.190;11.462;2024-02-28T05:48:44;5.50;99.90
27793;DHT22;15174;48.190;11.462;2024-02-28T05:51:11;5.50;99.90
27793;DHT22;15174;48.190;11.462;2024-02-28T05:53:37;5.60;99.90
27793;DHT22;15174;48.190;11.462;2024-02-28T05:56:04;5.60;99.90
27793;DHT22;15174;48.190;11.462;2024-02-28T05:58:30;5.60;99.90
27793;DHT22;15174;48.190;11.462;2024-02-28T06:00:56;5.60;99.90
27793;DHT22;15174;48.190;11.462;2024-02-28T06:03:22;5.60;99.90
27793;DHT22;15174;48.190;11.462;2024-02-28T06:05:47;5.60;99.90
27793;DHT22;15174;48.190;11.462;2024-02-28T06:08:13;5.60;99.90
27793;DHT22;15174;48.190;11.462;2024-02-28T06:10:39;5.60;99.90
27793;DHT22;15174;48.190;11.462;2024-02-28T06:13:07;5.60;99.90
27793;DHT22;15174;48.190;11.462;2024-02-28T06:15:33;5.70;99.90
27793;DHT22;15174;48.190;11.462;2024-02-28T06:17:59;5.70;99.90
27793;DHT22;15174;48.190;11.462;2024-02-28T06:20:26;5.70;99.90
27793;DHT22;15174;48.190;11.462;2024-02-28T06:22:52;5.90;99.90
27793;DHT22;15174;48.190;11.462;2024-02-28T06:25:18;6.00;99.90
27793;DHT22;15174;48.190;11.462;2024-02-28T06:27:45;6.00;99.90
27793;DHT22;15174;48.190;11.462;2024-02-28T06:30:11;6.00;99.90
27793;DHT22;15174;48.190;11.462;2024-02-28T06:32:40;6.00;99.90
27793;DHT22;15174;48.190;11.462;2024-02-28T06:35:07;6.00;99.90
27793;DHT22;15174;48.190;11.462;2024-02-28T06:37:33;6.10;99.90
27793;DHT22;15174;48.190;11.462;2024-02-28T06:39:59;6.10;99.90
27793;DHT22;15174;48.190;11.462;2024-02-28T06:42:25;6.10;99.90
27793;DHT22;15174;48.190;11.462;2024-02-28T06:44:50;6.10;99.90
27793;DHT22;15174;48.190;11.462;2024-02-28T06:47:16;6.10;99.90
27793;DHT22;15174;48.190;11.462;2024-02-28T06:49:42;6.10;99.90
27793;DHT22;15174;48.190;11.462;2024-02-28T06:52:07;6.10;99.90
27793;DHT22;15174;48.190;11.462;2024-02-28T06:54:33;6.20;99.90
27793;DHT22;15174;48.190;11.462;2024-02-28T06:56:59;6.20;99.90
27793;DHT22;15174;48.190;11.462;2024-02-28T06:59:24;6.20;99.90
27793;DHT22;15174;48.190;11.462;2024-02-28T07:01:50;6.30;99.90
27793;DHT22;15174;48.190;11.462;2024-02-28T07:04:15;6.40;99.90
27793;DHT22;15174;48.190;11.462;2024-02-28T07:06:42;6.50;99.90
27793;DHT22;15174;48.190;11.462;2024-02-28T07:09:08;6.60;99.90
27793;DHT22;15174;48.190;11.462;2024-02-28T07:11:34;6.60;99.90
27793;DHT22;15174;48.190;11.462;2024-02-28T07:14:00;6.50;99.90
27793;DHT22;15174;48.190;11.462;2024-02-28T07:16:29;6.50;99.90
27793;DHT22;15174;48.190;11.462;2024-02-28T07:18:55;6.60;99.90
27793;DHT22;15174;48.190;11.462;2024-02-28T07:21:20;6.60;99.90
27793;DHT22;15174;48.190;11.462;2024-02-28T07:23:46;6.60;99.90
27793;DHT22;15174;48.190;11.462;2024-02-28T07:26:18;6.60;99.90
27793;DHT22;15174;48.190;11.462;2024-02-28T07:28:43;6.70;99.90
27793;DHT22;15174;48.190;11.462;2024-02-28T07:31:18;6.70;99.90
27793;DHT22;15174;48.190;11.462;2024-02-28T07:33:44;6.70;99.90
27793;DHT22;15174;48.190;11.462;2024-02-28T07:36:12;6.70;99.90
27793;DHT22;15174;48.190;11.462;2024-02-28T07:38:38;6.80;99.90
27793;DHT22;15174;48.190;11.462;2024-02-28T07:41:04;6.90;99.90
27793;DHT22;15174;48.190;11.462;2024-02-28T07:43:30;6.90;99.90
27793;DHT22;15174;48.190;11.462;2024-02-28T07:46:01;6.90;99.90
27793;DHT22;15174;48.190;11.462;2024-02-28T07:48:26;7.00;99.90
27793;DHT22;15174;48.190;11.462;2024-02-28T07:50:52;7.00;99.90
27793;DHT22;15174;48.190;11.462;2024-02-28T07:53:18;7.00;99.90
27793;DHT22;15174;48.190;11.462;2024-02-28T07:55:43;7.00;99.90
27793;DHT22;15174;48.190;11.462;2024-02-28T07:58:09;7.10;99.90
27793;DHT22;15174;48.190;11.462;2024-02-28T08:00:35;7.20;99.90
27793;DHT22;15174;48.190;11.462;2024-02-28T08:05:27;7.20;99.90
27793;DHT22;15174;48.190;11.462;2024-02-28T08:07:54;7.30;99.90
27793;DHT22;15174;48.190;11.462;2024-02-28T08:10:19;7.30;99.90
27793;DHT22;15174;48.190;11.462;2024-02-28T08:12:45;7.30;99.90
27793;DHT22;15174;48.190;11.462;2024-02-28T08:15:11;7.30;99.90
27793;DHT22;15174;48.190;11.462;2024-02-28T08:17:36;7.30;99.90
27793;DHT22;15174;48.190;11.462;2024-02-28T08:20:04;7.20;99.90
27793;DHT22;15174;48.190;11.462;2024-02-28T08:22:31;7.20;99.90
27793;DHT22;15174;48.190;11.462;2024-02-28T08:24:56;7.20;99.90
27793;DHT22;15174;48.190;11.462;2024-02-28T08:27:22;7.20;99.90
27793;DHT22;15174;48.190;11.462;2024-02-28T08:29:50;7.30;99.90
27793;DHT22;15174;48.190;11.462;2024-02-28T08:32:17;7.30;99.90
27793;DHT22;15174;48.190;11.462;2024-02-28T08:34:46;7.40;99.90
27793;DHT22;15174;48.190;11.462;2024-02-28T08:37:12;7.30;99.90
27793;DHT22;15174;48.190;11.462;2024-02-28T08:39:38;7.30;99.90
27793;DHT22;15174;48.190;11.462;2024-02-28T08:42:04;7.40;99.90
27793;DHT22;15174;48.190;11.462;2024-02-28T08:44:30;7.40;99.90
27793;DHT22;15174;48.190;11.462;2024-02-28T08:46:57;7.50;99.90
27793;DHT22;15174;48.190;11.462;2024-02-28T08:49:22;7.50;99.90
27793;DHT22;15174;48.190;11.462;2024-02-28T08:51:48;7.40;99.90
27793;DHT22;15174;48.190;11.462;2024-02-28T08:54:13;7.30;99.90
27793;DHT22;15174;48.190;11.462;2024-02-28T08:56:39;7.30;99.90
27793;DHT22;15174;48.190;11.462;2024-02-28T08:59:05;7.30;99.90
27793;DHT22;15174;48.190;11.462;2024-02-28T09:01:30;7.40;99.90
27793;DHT22;15174;48.190;11.462;2024-02-28T09:03:56;7.40;99.90
27793;DHT22;15174;48.190;11.462;2024-02-28T09:06:23;7.50;99.90
27793;DHT22;15174;48.190;11.462;2024-02-28T09:08:48;7.70;99.90
27793;DHT22;15174;48.190;11.462;2024-02-28T09:11:14;7.80;99.90
27793;DHT22;15174;48.190;11.462;2024-02-28T09:13:39;7.90;99.90
27793;DHT22;15174;48.190;11.462;2024-02-28T09:16:05;8.10;99.90
27793;DHT22;15174;48.190;11.462;2024-02-28T09:18:31;8.10;99.90
27793;DHT22;15174;48.190;11.462;2024-02-28T09:20:56;8.10;99.90
27793;DHT22;15174;48.190;11.462;2024-02-28T09:23:23;8.20;99.90
27793;DHT22;15174;48.190;11.462;2024-02-28T09:25:48;8.20;99.90
27793;DHT22;15174;48.190;11.462;2024-02-28T09:30:42;8.50;99.90
27793;DHT22;15174;48.190;11.462;2024-02-28T09:33:08;8.50;99.90
27793;DHT22;15174;48.190;11.462;2024-02-28T09:38:02;8.90;99.90
27793;DHT22;15174;48.190;11.462;2024-02-28T09:40:27;9.00;99.90
27793;DHT22;15174;48.190;11.462;2024-02-28T09:55:14;9.70;99.90
27793;DHT22;15174;48.190;11.462;2024-02-28T09:57:40;9.70;99.90
27793;DHT22;15174;48.190;11.462;2024-02-28T10:02:33;9.50;99.90
27793;DHT22;15174;48.190;11.462;2024-02-28T10:04:59;9.30;99.90
27793;DHT22;15174;48.190;11.462;2024-02-28T10:07:26;9.10;99.90
27793;DHT22;15174;48.190;11.462;2024-02-28T10:09:52;9.00;99.90
27793;DHT22;15174;48.190;11.462;2024-02-28T10:12:18;9.10;99.90
27793;DHT22;15174;48.190;11.462;2024-02-28T10:14:49;9.10;99.90
27793;DHT22;15174;48.190;11.462;2024-02-28T10:17:16;9.20;99.90
27793;DHT22;15174;48.190;11.462;2024-02-28T10:19:41;9.20;99.90
27793;DHT22;15174;48.190;11.462;2024-02-28T10:22:07;9.30;99.90
27793;DHT22;15174;48.190;11.462;2024-02-28T10:24:33;9.40;99.90
27793;DHT22;15174;48.190;11.462;2024-02-28T10:27:01;9.40;99.90
27793;DHT22;15174;48.190;11.462;2024-02-28T10:29:27;9.50;99.90
27793;DHT22;15174;48.190;11.462;2024-02-28T10:31:56;9.50;99.90
27793;DHT22;15174;48.190;11.462;2024-02-28T10:34:22;9.70;99.90
27793;DHT22;15174;48.190;11.462;2024-02-28T10:36:49;9.90;99.90
27793;DHT22;15174;48.190;11.462;2024-02-28T10:39:15;10.00;99.90
27793;DHT22;15174;48.190;11.462;2024-02-28T10:41:42;10.00;99.90
27793;DHT22;15174;48.190;11.462;2024-02-28T10:44:09;9.80;99.90
27793;DHT22;15174;48.190;11.462;2024-02-28T10:46:37;9.90;99.90
27793;DHT22;15174;48.190;11.462;2024-02-28T10:49:04;9.80;99.90
27793;DHT22;15174;48.190;11.462;2024-02-28T10:51:34;9.60;99.90
27793;DHT22;15174;48.190;11.462;2024-02-28T10:54:13;9.50;99.90
27793;DHT22;15174;48.190;11.462;2024-02-28T10:56:41;9.50;99.90
27793;DHT22;15174;48.190;11.462;2024-02-28T10:59:09;9.40;99.90
27793;DHT22;15174;48.190;11.462;2024-02-28T11:01:37;9.50;99.90
27793;DHT22;15174;48.190;11.462;2024-02-28T11:04:04;9.50;99.90
27793;DHT22;15174;48.190;11.462;2024-02-28T11:06:31;9.40;99.90
27793;DHT22;15174;48.190;11.462;2024-02-28T11:08:59;9.30;99.90
27793;DHT22;15174;48.190;11.462;2024-02-28T11:11:30;9.10;99.90
27793;DHT22;15174;48.190;11.462;2024-02-28T11:13:58;8.80;99.90
27793;DHT22;15174;48.190;11.462;2024-02-28T11:16:29;8.60;99.90
27793;DHT22;15174;48.190;11.462;2024-02-28T11:18:55;8.50;99.90
27793;DHT22;15174;48.190;11.462;2024-02-28T11:21:25;8.40;99.90
27793;DHT22;15174;48.190;11.462;2024-02-28T11:23:51;8.40;99.90
27793;DHT22;15174;48.190;11.462;2024-02-28T11:26:17;8.40;99.90
27793;DHT22;15174;48.190;11.462;2024-02-28T11:28:43;8.30;99.90
27793;DHT22;15174;48.190;11.462;2024-02-28T11:31:09;8.30;99.90
27793;DHT22;15174;48.190;11.462;2024-02-28T11:33:38;8.40;99.90
27793;DHT22;15174;48.190;11.462;2024-02-28T11:36:05;8.50;99.90
27793;DHT22;15174;48.190;11.462;2024-02-28T11:38:31;8.60;99.90
27793;DHT22;15174;48.190;11.462;2024-02-28T11:40:57;8.50;99.90
27793;DHT22;15174;48.190;11.462;2024-02-28T11:43:23;8.50;99.90
27793;DHT22;15174;48.190;11.462;2024-02-28T11:45:49;8.60;99.90
27793;DHT22;15174;48.190;11.462;2024-02-28T11:48:15;8.70;99.90
27793;DHT22;15174;48.190;11.462;2024-02-28T11:50:41;8.70;99.90
27793;DHT22;15174;48.190;11.462;2024-02-28T11:53:08;8.70;99.90
27793;DHT22;15174;48.190;11.462;2024-02-28T11:55:34;8.70;99.90
27793;DHT22;15174;48.190;11.462;2024-02-28T11:58:00;8.70;99.90
27793;DHT22;15174;48.190;11.462;2024-02-28T12:00:25;8.60;99.90
27793;DHT22;15174;48.190;11.462;2024-02-28T12:02:51;8.60;99.90
27793;DHT22;15174;48.190;11.462;2024-02-28T12:05:19;8.60;99.90
27793;DHT22;15174;48.190;11.462;2024-02-28T12:07:45;8.50;99.90
27793;DHT22;15174;48.190;11.462;2024-02-28T12:10:10;8.60;99.90
27793;DHT22;15174;48.190;11.462;2024-02-28T12:12:38;8.50;99.90
27793;DHT22;15174;48.190;11.462;2024-02-28T12:15:05;8.60;99.90
27793;DHT22;15174;48.190;11.462;2024-02-28T12:17:31;8.70;99.90
27793;DHT22;15174;48.190;11.462;2024-02-28T12:20:00;8.80;99.90
27793;DHT22;15174;48.190;11.462;2024-02-28T12:22:26;9.00;99.90
27793;DHT22;15174;48.190;11.462;2024-02-28T12:24:52;9.20;99.90
27793;DHT22;15174;48.190;11.462;2024-02-28T12:27:18;9.30;99.90
27793;DHT22;15174;48.190;11.462;2024-02-28T12:29:44;9.30;99.90
27793;DHT22;15174;48.190;11.462;2024-02-28T12:32:10;9.40;99.90
27793;DHT22;15174;48.190;11.462;2024-02-28T12:34:35;9.40;99.90
27793;DHT22;15174;48.190;11.462;2024-02-28T12:37:01;9.40;99.90
27793;DHT22;15174;48.190;11.462;2024-02-28T12:39:28;9.30;99.90
27793;DHT22;15174;48.190;11.462;2024-02-28T12:41:53;9.20;99.90
27793;DHT22;15174;48.190;11.462;2024-02-28T12:44:19;9.10;99.90
27793;DHT22;15174;48.190;11.462;2024-02-28T12:46:45;8.90;99.90
27793;DHT22;15174;48.190;11.462;2024-02-28T12:49:12;8.70;99.90
27793;DHT22;15174;48.190;11.462;2024-02-28T12:51:42;8.60;99.90
27793;DHT22;15174;48.190;11.462;2024-02-28T12:54:10;8.60;99.90
27793;DHT22;15174;48.190;11.462;2024-02-28T12:56:36;8.50;99.90
27793;DHT22;15174;48.190;11.462;2024-02-28T12:59:03;8.60;99.90
27793;DHT22;15174;48.190;11.462;2024-02-28T13:01:29;8.60;99.90
27793;DHT22;15174;48.190;11.462;2024-02-28T13:03:56;8.70;99.90
27793;DHT22;15174;48.190;11.462;2024-02-28T13:06:21;8.80;99.90
27793;DHT22;15174;48.190;11.462;2024-02-28T13:08:47;8.80;99.90
27793;DHT22;15174;48.190;11.462;2024-02-28T13:11:20;8.80;99.90
27793;DHT22;15174;48.190;11.462;2024-02-28T13:13:51;8.70;99.90
27793;DHT22;15174;48.190;11.462;2024-02-28T13:16:17;8.60;99.90
27793;DHT22;15174;48.190;11.462;2024-02-28T13:18:44;8.50;99.90
27793;DHT22;15174;48.190;11.462;2024-02-28T13:21:10;8.40;99.90
27793;DHT22;15174;48.190;11.462;2024-02-28T13:23:36;8.40;99.90
27793;DHT22;15174;48.190;11.462;2024-02-28T13:26:04;8.50;99.90
27793;DHT22;15174;48.190;11.462;2024-02-28T13:28:29;8.40;99.90
27793;DHT22;15174;48.190;11.462;2024-02-28T13:30:59;8.30;99.90
27793;DHT22;15174;48.190;11.462;2024-02-28T13:33:25;8.20;99.90
27793;DHT22;15174;48.190;11.462;2024-02-28T13:35:51;8.10;99.90
27793;DHT22;15174;48.190;11.462;2024-02-28T13:38:18;8.10;99.90
27793;DHT22;15174;48.190;11.462;2024-02-28T13:40:45;8.00;99.90
27793;DHT22;15174;48.190;11.462;2024-02-28T13:43:11;8.00;99.90
27793;DHT22;15174;48.190;11.462;2024-02-28T13:45:41;8.10;99.90
27793;DHT22;15174;48.190;11.462;2024-02-28T13:48:19;8.10;99.90
27793;DHT22;15174;48.190;11.462;2024-02-28T13:50:46;8.20;99.90
27793;DHT22;15174;48.190;11.462;2024-02-28T13:53:12;8.30;99.90
27793;DHT22;15174;48.190;11.462;2024-02-28T13:55:38;8.30;99.90
27793;DHT22;15174;48.190;11.462;2024-02-28T13:58:04;8.30;99.90
27793;DHT22;15174;48.190;11.462;2024-02-28T14:00:30;8.30;99.90
27793;DHT22;15174;48.190;11.462;2024-02-28T14:02:56;8.30;99.90
27793;DHT22;15174;48.190;11.462;2024-02-28T14:05:22;8.30;99.90
27793;DHT22;15174;48.190;11.462;2024-02-28T14:07:47;8.30;99.90
27793;DHT22;15174;48.190;11.462;2024-02-28T14:10:14;8.50;99.90
27793;DHT22;15174;48.190;11.462;2024-02-28T14:12:41;8.50;99.90
27793;DHT22;15174;48.190;11.462;2024-02-28T14:15:08;8.50;99.90
27793;DHT22;15174;48.190;11.462;2024-02-28T14:17:36;8.50;99.90
27793;DHT22;15174;48.190;11.462;2024-02-28T14:20:02;8.50;99.90
27793;DHT22;15174;48.190;11.462;2024-02-28T14:22:27;8.70;99.90
27793;DHT22;15174;48.190;11.462;2024-02-28T14:24:53;8.70;99.90
27793;DHT22;15174;48.190;11.462;2024-02-28T14:27:19;8.80;99.90
27793;DHT22;15174;48.190;11.462;2024-02-28T14:29:45;8.80;99.90
27793;DHT22;15174;48.190;11.462;2024-02-28T14:32:11;8.80;99.90
27793;DHT22;15174;48.190;11.462;2024-02-28T14:34:37;8.70;99.90
27793;DHT22;15174;48.190;11.462;2024-02-28T14:37:03;8.60;99.90
27793;DHT22;15174;48.190;11.462;2024-02-28T14:39:29;8.50;99.90
27793;DHT22;15174;48.190;11.462;2024-02-28T14:41:55;8.50;99.90
27793;DHT22;15174;48.190;11.462;2024-02-28T14:44:21;8.50;99.90
27793;DHT22;15174;48.190;11.462;2024-02-28T14:46:46;8.60;99.90
27793;DHT22;15174;48.190;11.462;2024-02-28T14:49:12;8.60;99.90
27793;DHT22;15174;48.190;11.462;2024-02-28T14:51:38;8.60;99.90
27793;DHT22;15174;48.190;11.462;2024-02-28T14:54:03;8.60;99.90
27793;DHT22;15174;48.190;11.462;2024-02-28T14:56:29;8.70;99.90
27793;DHT22;15174;48.190;11.462;2024-02-28T14:58:55;8.60;99.90
27793;DHT22;15174;48.190;11.462;2024-02-28T15:01:21;8.60;99.90
27793;DHT22;15174;48.190;11.462;2024-02-28T15:03:49;8.60;99.90
27793;DHT22;15174;48.190;11.462;2024-02-28T15:06:15;8.50;99.90
27793;DHT22;15174;48.190;11.462;2024-02-28T15:08:41;8.40;99.90
27793;DHT22;15174;48.190;11.462;2024-02-28T15:11:08;8.40;99.90
27793;DHT22;15174;48.190;11.462;2024-02-28T15:13:33;8.50;99.90
27793;DHT22;15174;48.190;11.462;2024-02-28T15:15:59;8.60;99.90
27793;DHT22;15174;48.190;11.462;2024-02-28T15:18:25;8.60;99.90
27793;DHT22;15174;48.190;11.462;2024-02-28T15:20:52;8.70;99.90
27793;DHT22;15174;48.190;11.462;2024-02-28T15:23:20;8.70;99.90
27793;DHT22;15174;48.190;11.462;2024-02-28T15:25:48;8.80;99.90
27793;DHT22;15174;48.190;11.462;2024-02-28T15:28:15;8.70;99.90
27793;DHT22;15174;48.190;11.462;2024-02-28T15:30:43;8.50;99.90
27793;DHT22;15174;48.190;11.462;2024-02-28T15:33:09;8.40;99.90
27793;DHT22;15174;48.190;11.462;2024-02-28T15:35:36;8.30;99.90
27793;DHT22;15174;48.190;11.462;2024-02-28T15:38:03;8.10;99.90
27793;DHT22;15174;48.190;11.462;2024-02-28T15:40:29;8.00;99.90
27793;DHT22;15174;48.190;11.462;2024-02-28T15:42:56;7.90;99.90
27793;DHT22;15174;48.190;11.462;2024-02-28T15:45:24;7.90;99.90
27793;DHT22;15174;48.190;11.462;2024-02-28T15:47:50;7.80;99.90